KHUL

Houlton International Airport

Houlton, Maine, USA
METAR KHUL 182253Z AUTO 00000KT 10SM CLR 20/18 A2987 RMK AO2 SLP116 T02000178
Observed Flight Rules
Aug-18 @ 22:53 UTC (53 minutes ago) Visual Flight Rules
Visibility Clouds
10 miles
  • Clear skies
Temperatures Readings
Current 20°C / 68°F
Dewpoint 18°C / 64°F
Humidity 88%
Altimeter 29.87" Hg
Pressure 1011.6 hPa
Elevation 150
METAR KHUL 182253Z AUTO 00000KT 10SM CLR 20/18 A2987 RMK AO2 SLP116 T02000178
Observed Flight Rules
Aug-18 @ 22:53 UTC
(53 minutes ago)
VFR
Clouds
  • Clear skies
Temperature Dewpoint
20°C / 68°F 18°C / 64°F
Humidity Altimeter Pressure
88% 29.87" Hg 1011.6 hPa